Time;durP1;ratioP1;P1;durP2;ratioP2;P2;SDS_P1;SDS_P2;PMS_P1;PMS_P2;Temp;Humidity;BMP_temperature;BMP_pressure;BME280_temperature;BME280_humidity;BME280_pressure;Samples;Min_cycle;Max_cycle;Signal;HPM_P1;HPM_P2
2021/10/03 00:01:57;;;;;;;18.45;15.00;;;16.10;99.90;;;;;;5033021;28;20057;-75
2021/10/03 00:04:25;;;;;;;14.70;12.70;;;16.10;99.90;;;;;;5032082;28;20037;-74
2021/10/03 00:06:52;;;;;;;16.55;13.50;;;16.00;99.90;;;;;;5032528;28;20060;-74
2021/10/03 00:09:18;;;;;;;15.00;13.50;;;16.00;99.90;;;;;;5031172;28;20021;-74
2021/10/03 00:11:47;;;;;;;14.30;12.82;;;16.00;99.90;;;;;;5035231;28;20028;-74
2021/10/03 00:14:13;;;;;;;16.65;12.23;;;15.90;99.90;;;;;;5035564;28;20068;-74
2021/10/03 00:16:40;;;;;;;13.00;11.70;;;15.90;99.90;;;;;;5034122;28;20061;-73
2021/10/03 00:19:06;;;;;;;12.02;10.82;;;15.90;99.90;;;;;;5034037;28;20021;-74
2021/10/03 00:21:32;;;;;;;13.98;11.45;;;16.00;99.90;;;;;;5034146;28;20397;-74
2021/10/03 00:23:58;;;;;;;10.70;9.60;;;15.90;99.90;;;;;;5035646;28;20033;-74
2021/10/03 00:26:24;;;;;;;9.00;8.07;;;15.90;99.90;;;;;;5045676;28;20030;-73
2021/10/03 00:28:49;;;;;;;9.48;8.57;;;15.90;99.90;;;;;;5054120;28;20029;-72
2021/10/03 00:31:15;;;;;;;11.02;7.45;;;15.90;99.90;;;;;;5044133;28;20025;-74
2021/10/03 00:33:41;;;;;;;7.25;6.55;;;16.00;99.90;;;;;;5039856;28;20025;-73
2021/10/03 00:36:06;;;;;;;8.13;7.22;;;15.90;99.90;;;;;;5040979;28;20089;-74
2021/10/03 00:38:32;;;;;;;9.50;8.50;;;15.80;99.90;;;;;;5051905;28;20018;-73
2021/10/03 00:40:59;;;;;;;9.68;7.25;;;15.80;99.90;;;;;;5056729;28;20033;-75
2021/10/03 00:43:25;;;;;;;7.88;7.00;;;15.80;99.90;;;;;;5057096;28;20017;-74
2021/10/03 00:45:50;;;;;;;7.28;6.30;;;15.70;99.90;;;;;;5043645;28;20389;-74
2021/10/03 00:48:16;;;;;;;7.57;6.45;;;15.70;99.90;;;;;;5036401;28;20030;-73
2021/10/03 00:50:44;;;;;;;9.15;6.55;;;15.70;99.90;;;;;;5034343;28;20080;-74
2021/10/03 00:53:12;;;;;;;7.03;6.32;;;15.80;99.90;;;;;;5035650;28;20448;-74
2021/10/03 00:55:39;;;;;;;8.75;7.38;;;15.70;99.90;;;;;;5035393;28;20013;-73
2021/10/03 00:58:05;;;;;;;6.30;5.55;;;15.70;99.90;;;;;;5035343;28;20457;-74
2021/10/03 01:00:32;;;;;;;9.40;6.03;;;15.80;99.90;;;;;;5035289;28;20029;-75
2021/10/03 01:02:59;;;;;;;6.35;5.72;;;15.80;99.90;;;;;;5034979;28;20048;-74
2021/10/03 01:05:26;;;;;;;10.40;5.45;;;15.80;99.90;;;;;;5039161;28;20029;-73
2021/10/03 01:07:51;;;;;;;6.18;5.57;;;15.80;99.90;;;;;;5037232;28;20028;-74
2021/10/03 01:10:23;;;;;;;7.45;5.72;;;15.80;99.90;;;;;;5035762;28;20022;-74
2021/10/03 01:12:56;;;;;;;6.47;5.88;;;15.80;99.90;;;;;;5035629;28;20024;-75
2021/10/03 01:15:22;;;;;;;6.10;5.38;;;15.80;99.90;;;;;;5035063;28;20022;-75
2021/10/03 01:17:48;;;;;;;11.38;6.25;;;15.80;99.90;;;;;;5034390;28;20448;-75
2021/10/03 01:20:13;;;;;;;6.93;5.28;;;15.80;99.90;;;;;;5034314;28;20029;-75
2021/10/03 01:22:39;;;;;;;5.70;5.20;;;15.80;99.90;;;;;;5034167;28;20100;-75
2021/10/03 01:25:06;;;;;;;8.23;4.97;;;15.80;99.90;;;;;;5034128;28;20036;-74
2021/10/03 01:27:33;;;;;;;4.88;4.38;;;15.80;99.90;;;;;;5036633;28;20026;-74
2021/10/03 01:29:58;;;;;;;7.13;5.28;;;15.80;99.90;;;;;;5046035;28;20036;-74
2021/10/03 01:32:24;;;;;;;6.60;5.88;;;15.90;99.90;;;;;;5038411;28;20044;-74
2021/10/03 01:34:49;;;;;;;8.38;5.63;;;15.90;99.90;;;;;;5037235;28;20393;-74
2021/10/03 01:37:16;;;;;;;6.47;5.40;;;15.80;99.90;;;;;;5036956;28;20025;-74
2021/10/03 01:39:42;;;;;;;7.03;5.22;;;15.80;99.90;;;;;;5035871;28;20033;-74
2021/10/03 01:42:07;;;;;;;10.52;5.50;;;15.80;99.90;;;;;;5035335;28;20032;-74
2021/10/03 01:44:34;;;;;;;7.50;5.43;;;15.80;99.90;;;;;;5034792;28;20040;-74
2021/10/03 01:47:00;;;;;;;6.95;5.00;;;15.80;99.90;;;;;;5035138;28;20113;-73
2021/10/03 01:49:27;;;;;;;9.63;5.72;;;15.80;99.90;;;;;;5035790;28;20068;-74
2021/10/03 01:51:53;;;;;;;6.97;5.53;;;15.80;99.90;;;;;;5036005;28;20095;-74
2021/10/03 01:54:19;;;;;;;5.28;4.78;;;15.70;99.90;;;;;;5034849;28;20014;-75
2021/10/03 01:56:45;;;;;;;6.28;5.68;;;15.70;99.90;;;;;;5034485;28;20025;-73
2021/10/03 01:59:10;;;;;;;6.07;5.45;;;15.70;99.90;;;;;;5034617;28;20025;-75
2021/10/03 02:01:45;;;;;;;7.05;5.90;;;15.70;99.90;;;;;;5034752;28;20531;-73
2021/10/03 02:04:22;;;;;;;5.60;5.07;;;15.70;99.90;;;;;;5034413;28;20029;-73
2021/10/03 02:06:50;;;;;;;6.07;5.32;;;15.70;99.90;;;;;;5034241;28;20366;-74
2021/10/03 02:09:18;;;;;;;6.35;5.32;;;15.70;99.90;;;;;;5034950;28;20033;-74
2021/10/03 02:11:50;;;;;;;6.38;5.60;;;15.70;99.90;;;;;;5034770;28;20029;-74
2021/10/03 02:14:17;;;;;;;5.93;5.10;;;15.70;99.90;;;;;;5033741;28;20100;-73
2021/10/03 02:16:43;;;;;;;6.72;4.90;;;15.70;99.90;;;;;;5033395;28;20033;-73
2021/10/03 02:19:09;;;;;;;6.43;5.82;;;15.70;99.90;;;;;;5033136;28;20362;-75
2021/10/03 02:21:35;;;;;;;5.43;4.57;;;15.70;99.90;;;;;;5033455;28;20042;-75
2021/10/03 02:24:01;;;;;;;5.45;4.88;;;15.70;99.90;;;;;;5033438;28;20108;-74
2021/10/03 02:26:28;;;;;;;7.45;5.57;;;15.80;99.90;;;;;;5033210;28;20072;-74
2021/10/03 02:28:53;;;;;;;6.80;5.65;;;15.70;99.90;;;;;;5033326;28;20105;-73
2021/10/03 02:31:19;;;;;;;6.57;5.40;;;15.70;99.90;;;;;;5031694;28;20399;-74
2021/10/03 02:33:48;;;;;;;6.88;5.25;;;15.70;99.90;;;;;;5033072;28;20104;-74
2021/10/03 02:36:16;;;;;;;5.30;4.80;;;15.70;99.90;;;;;;5032904;28;20550;-74
2021/10/03 02:38:44;;;;;;;5.78;5.18;;;15.70;99.90;;;;;;5032848;28;20033;-74
2021/10/03 02:41:10;;;;;;;6.32;5.25;;;15.60;99.90;;;;;;5031515;28;20564;-74
2021/10/03 02:43:39;;;;;;;6.15;5.55;;;15.60;99.90;;;;;;5032669;28;20029;-74
2021/10/03 02:46:04;;;;;;;6.85;5.60;;;15.60;99.90;;;;;;5032495;28;20061;-74
2021/10/03 02:48:33;;;;;;;5.97;4.80;;;15.70;99.90;;;;;;5032679;28;20048;-74
2021/10/03 02:51:00;;;;;;;6.00;4.88;;;15.60;99.90;;;;;;5031171;28;20025;-73
2021/10/03 02:53:26;;;;;;;5.82;5.03;;;15.60;99.90;;;;;;5032721;28;20029;-73
2021/10/03 02:55:52;;;;;;;5.82;5.00;;;15.60;99.90;;;;;;5031266;28;20072;-74
2021/10/03 02:58:18;;;;;;;8.73;6.32;;;15.70;99.90;;;;;;5033102;28;20105;-74
2021/10/03 03:00:45;;;;;;;6.68;5.13;;;15.90;99.90;;;;;;5054781;28;20060;-73
2021/10/03 03:03:11;;;;;;;9.60;5.55;;;15.80;99.90;;;;;;5057603;28;20016;-72
2021/10/03 03:05:36;;;;;;;6.07;5.47;;;15.60;99.90;;;;;;5053748;28;20030;-74
2021/10/03 03:08:03;;;;;;;6.18;5.18;;;15.50;99.90;;;;;;5038536;28;20048;-74
2021/10/03 03:10:29;;;;;;;6.25;5.10;;;15.50;99.90;;;;;;5045942;28;20107;-73
2021/10/03 03:12:55;;;;;;;7.72;5.68;;;15.30;99.90;;;;;;5043704;28;20026;-73
2021/10/03 03:15:21;;;;;;;9.18;5.25;;;15.30;99.90;;;;;;5044752;28;20048;-73
2021/10/03 03:17:46;;;;;;;9.07;5.10;;;15.30;99.90;;;;;;5054754;23;20056;-73
2021/10/03 03:20:12;;;;;;;8.50;6.25;;;15.20;99.90;;;;;;5032053;28;20033;-73
2021/10/03 03:22:38;;;;;;;6.10;5.50;;;15.30;99.90;;;;;;5032406;28;20053;-73
2021/10/03 03:25:07;;;;;;;5.95;5.38;;;15.30;99.90;;;;;;5032092;28;20026;-74
2021/10/03 03:27:34;;;;;;;7.07;5.30;;;15.20;99.90;;;;;;5032259;28;20485;-73
2021/10/03 03:29:59;;;;;;;6.03;5.10;;;15.30;99.90;;;;;;5032281;28;20029;-73
2021/10/03 03:32:25;;;;;;;7.05;5.68;;;15.30;99.90;;;;;;5032110;28;20033;-73
2021/10/03 03:34:50;;;;;;;6.28;5.53;;;15.30;99.90;;;;;;5032124;28;20017;-73
2021/10/03 03:37:16;;;;;;;6.65;5.80;;;15.30;99.90;;;;;;5030742;28;20385;-74
2021/10/03 03:39:41;;;;;;;5.90;5.30;;;15.30;99.90;;;;;;5031844;28;20436;-73
2021/10/03 03:42:07;;;;;;;6.32;5.65;;;15.40;99.90;;;;;;5030440;28;20108;-73
2021/10/03 03:44:33;;;;;;;7.00;5.53;;;15.50;99.90;;;;;;5032046;28;20508;-73
2021/10/03 03:47:01;;;;;;;6.50;5.53;;;15.40;99.90;;;;;;5035427;28;20171;-73
2021/10/03 03:49:28;;;;;;;8.27;5.60;;;15.40;99.90;;;;;;5035855;28;20029;-73
2021/10/03 03:51:53;;;;;;;5.63;5.13;;;15.30;99.90;;;;;;5037454;28;20029;-74
2021/10/03 03:54:19;;;;;;;9.38;5.20;;;15.30;99.90;;;;;;5036471;28;20473;-73
2021/10/03 03:56:45;;;;;;;6.38;5.10;;;15.30;99.90;;;;;;5035821;28;20025;-73
2021/10/03 03:59:10;;;;;;;11.43;5.65;;;15.30;99.90;;;;;;5035432;28;20029;-73
2021/10/03 04:01:36;;;;;;;6.53;5.32;;;15.30;99.90;;;;;;5034271;28;20025;-73
2021/10/03 04:04:02;;;;;;;4.95;4.45;;;15.30;99.90;;;;;;5035650;28;20186;-72
2021/10/03 04:06:27;;;;;;;5.50;5.00;;;15.30;99.90;;;;;;5036053;28;20037;-73
2021/10/03 04:08:53;;;;;;;5.72;4.88;;;15.20;99.90;;;;;;5035210;28;20033;-73
2021/10/03 04:11:19;;;;;;;6.22;5.07;;;15.20;99.90;;;;;;5033991;28;20392;-75
2021/10/03 04:13:45;;;;;;;6.25;4.90;;;15.20;99.90;;;;;;5035368;28;20021;-74
2021/10/03 04:16:10;;;;;;;6.88;5.97;;;15.20;99.90;;;;;;5035316;28;20030;-73
2021/10/03 04:18:36;;;;;;;6.70;5.85;;;15.10;99.90;;;;;;5035362;28;20053;-73
2021/10/03 04:21:02;;;;;;;10.95;6.60;;;15.10;99.90;;;;;;5035088;28;20036;-73
2021/10/03 04:23:28;;;;;;;5.15;4.65;;;15.00;99.90;;;;;;5042100;28;20105;-73
2021/10/03 04:25:53;;;;;;;6.43;5.82;;;14.90;99.90;;;;;;5058901;28;20071;-72
2021/10/03 04:28:19;;;;;;;9.60;6.60;;;15.00;99.90;;;;;;5056236;28;20017;-73
2021/10/03 04:30:45;;;;;;;7.20;6.50;;;15.00;99.90;;;;;;5059242;28;20022;-73
2021/10/03 04:33:10;;;;;;;6.18;5.57;;;15.10;99.90;;;;;;5055564;28;20025;-72
2021/10/03 04:35:36;;;;;;;9.60;8.57;;;15.10;99.90;;;;;;5054969;28;20048;-73
2021/10/03 04:38:02;;;;;;;7.75;6.93;;;15.00;99.90;;;;;;5055979;28;20031;-73
2021/10/03 04:40:27;;;;;;;8.98;7.00;;;15.00;99.90;;;;;;5056116;28;20033;-74
2021/10/03 04:42:53;;;;;;;8.13;6.95;;;15.00;99.90;;;;;;5054434;28;20030;-73
2021/10/03 04:45:18;;;;;;;7.28;6.57;;;15.10;99.90;;;;;;5048336;28;20029;-73
2021/10/03 04:47:45;;;;;;;8.73;5.47;;;15.00;99.90;;;;;;5049731;28;20022;-73
2021/10/03 04:50:11;;;;;;;8.60;5.90;;;15.00;99.90;;;;;;5048093;28;20041;-73
2021/10/03 04:52:39;;;;;;;7.95;6.35;;;15.10;99.90;;;;;;5037433;28;20025;-74
2021/10/03 04:55:06;;;;;;;11.00;7.13;;;15.10;99.90;;;;;;5035872;28;20443;-73
2021/10/03 04:57:32;;;;;;;12.25;4.90;;;15.00;99.90;;;;;;5035275;28;20064;-73
2021/10/03 04:59:57;;;;;;;5.70;4.78;;;15.20;99.90;;;;;;5035468;28;20057;-74
2021/10/03 05:02:23;;;;;;;6.00;5.32;;;15.20;99.90;;;;;;5034884;28;20033;-73
2021/10/03 05:04:49;;;;;;;6.57;5.10;;;15.20;99.90;;;;;;5035108;28;20021;-74
2021/10/03 05:07:14;;;;;;;5.18;4.63;;;15.20;99.90;;;;;;5035451;28;20074;-73
2021/10/03 05:09:40;;;;;;;5.47;4.55;;;15.30;99.90;;;;;;5034625;28;20598;-73
2021/10/03 05:12:07;;;;;;;5.13;4.63;;;15.30;99.90;;;;;;5034816;28;20021;-73
2021/10/03 05:14:32;;;;;;;5.10;4.63;;;15.40;99.90;;;;;;5034415;28;20030;-73
2021/10/03 05:16:58;;;;;;;5.07;4.45;;;15.40;99.90;;;;;;5034364;28;20025;-74
2021/10/03 05:19:23;;;;;;;4.40;3.63;;;15.70;99.90;;;;;;5034740;28;20378;-72
2021/10/03 05:21:49;;;;;;;5.10;4.60;;;15.60;99.90;;;;;;5032821;28;20043;-74
2021/10/03 05:24:14;;;;;;;5.72;4.70;;;15.60;99.90;;;;;;5034560;28;20444;-74
2021/10/03 05:26:41;;;;;;;6.43;4.65;;;15.60;99.90;;;;;;5034165;28;20433;-74
2021/10/03 05:29:07;;;;;;;5.28;3.83;;;15.50;99.90;;;;;;5033992;28;20021;-74
2021/10/03 05:31:32;;;;;;;12.00;5.80;;;15.60;99.90;;;;;;5034458;28;20033;-75
2021/10/03 05:33:58;;;;;;;13.55;5.18;;;15.60;99.90;;;;;;5034710;28;20120;-74
2021/10/03 05:36:24;;;;;;;7.03;4.68;;;15.60;99.90;;;;;;5033282;28;20389;-75
2021/10/03 05:38:50;;;;;;;5.70;4.75;;;15.60;99.90;;;;;;5034224;28;20025;-74
2021/10/03 05:41:16;;;;;;;7.55;4.25;;;15.50;99.90;;;;;;5033959;28;20025;-74
2021/10/03 05:43:42;;;;;;;6.53;4.10;;;15.60;99.90;;;;;;5034468;28;20025;-73
2021/10/03 05:46:08;;;;;;;6.03;4.28;;;15.60;99.90;;;;;;5034212;28;20148;-72
2021/10/03 05:48:35;;;;;;;8.25;3.75;;;15.60;99.90;;;;;;5034010;28;20074;-74
2021/10/03 05:51:01;;;;;;;5.53;3.95;;;15.80;99.90;;;;;;5037240;28;20084;-74
2021/10/03 05:53:27;;;;;;;5.22;4.40;;;15.90;99.90;;;;;;5050878;28;20044;-74
2021/10/03 05:55:53;;;;;;;4.57;4.05;;;15.90;99.90;;;;;;5047436;28;20022;-73
2021/10/03 05:58:19;;;;;;;5.40;3.78;;;16.00;99.90;;;;;;5037551;28;20013;-73
2021/10/03 06:00:44;;;;;;;5.15;4.20;;;16.20;99.90;;;;;;5035783;28;20029;-75
2021/10/03 06:03:10;;;;;;;6.43;3.72;;;16.20;99.90;;;;;;5035656;28;20174;-73
2021/10/03 06:05:35;;;;;;;5.65;4.05;;;16.20;99.90;;;;;;5035028;28;20026;-74
2021/10/03 06:08:01;;;;;;;7.40;3.83;;;16.20;99.90;;;;;;5033765;28;20099;-73
2021/10/03 06:10:27;;;;;;;5.70;4.00;;;16.10;99.90;;;;;;5034240;28;20029;-73
2021/10/03 06:12:53;;;;;;;6.45;4.00;;;16.10;99.90;;;;;;5034789;28;20144;-73
2021/10/03 06:15:18;;;;;;;3.95;3.28;;;16.20;99.90;;;;;;5033636;28;20021;-75
2021/10/03 06:17:44;;;;;;;5.82;4.15;;;16.30;99.90;;;;;;5035043;28;20499;-74
2021/10/03 06:20:11;;;;;;;3.97;3.60;;;16.20;99.90;;;;;;5034282;28;20069;-73
2021/10/03 06:22:40;;;;;;;5.05;3.58;;;16.30;99.90;;;;;;5035070;28;20030;-74
2021/10/03 06:25:06;;;;;;;3.65;3.22;;;16.30;99.90;;;;;;5035107;28;20021;-74
2021/10/03 06:27:32;;;;;;;3.58;3.28;;;16.30;99.90;;;;;;5035804;28;20028;-74
2021/10/03 06:29:58;;;;;;;3.50;3.20;;;16.40;99.90;;;;;;5036666;28;20061;-74
2021/10/03 06:32:24;;;;;;;7.13;3.90;;;16.50;99.90;;;;;;5035986;28;20053;-74
2021/10/03 06:34:50;;;;;;;6.32;4.00;;;16.70;99.90;;;;;;5035362;28;20029;-74
2021/10/03 06:37:17;;;;;;;3.88;2.88;;;16.80;99.90;;;;;;5037469;28;20060;-73
2021/10/03 06:39:43;;;;;;;3.95;3.53;;;17.20;99.90;;;;;;5034837;28;20064;-73
2021/10/03 06:42:09;;;;;;;3.72;3.42;;;17.40;99.90;;;;;;5033873;28;20416;-73
2021/10/03 06:44:34;;;;;;;4.18;3.08;;;17.40;99.90;;;;;;5033940;28;20057;-73
2021/10/03 06:47:00;;;;;;;3.05;2.80;;;17.30;99.90;;;;;;5035907;28;20052;-73
2021/10/03 06:49:26;;;;;;;2.75;2.53;;;17.60;99.90;;;;;;5033950;28;20029;-72
2021/10/03 06:51:52;;;;;;;4.28;3.38;;;17.80;99.90;;;;;;5034417;28;20024;-73
2021/10/03 06:54:18;;;;;;;3.85;3.55;;;17.80;99.90;;;;;;5034711;28;20036;-73
2021/10/03 06:56:44;;;;;;;4.88;3.13;;;17.60;99.90;;;;;;5034908;28;20030;-73
2021/10/03 06:59:10;;;;;;;3.08;2.70;;;17.70;99.90;;;;;;5034719;28;20385;-73
2021/10/03 07:01:36;;;;;;;4.07;3.17;;;18.10;99.90;;;;;;5031758;28;20021;-75
2021/10/03 07:04:02;;;;;;;4.00;3.17;;;18.20;99.90;;;;;;5031843;28;20408;-75
2021/10/03 07:06:27;;;;;;;3.78;3.13;;;18.00;99.90;;;;;;5032513;28;20104;-73
2021/10/03 07:08:53;;;;;;;3.35;3.05;;;18.00;99.90;;;;;;5032855;28;20025;-73
2021/10/03 07:11:19;;;;;;;3.17;2.83;;;18.20;99.90;;;;;;5032576;28;20028;-73
2021/10/03 07:13:44;;;;;;;4.18;2.83;;;18.40;99.90;;;;;;5032691;28;20049;-74
2021/10/03 07:16:10;;;;;;;3.10;2.80;;;18.20;99.90;;;;;;5032923;28;20029;-74
2021/10/03 07:18:35;;;;;;;3.67;3.00;;;18.20;99.90;;;;;;5032894;28;20413;-73
2021/10/03 07:21:03;;;;;;;3.72;2.75;;;18.40;99.90;;;;;;5037574;28;20029;-73
2021/10/03 07:23:30;;;;;;;4.95;2.70;;;18.40;99.90;;;;;;5037083;28;20034;-74
2021/10/03 07:25:56;;;;;;;3.17;2.60;;;18.30;99.90;;;;;;5037872;28;20428;-73
2021/10/03 07:28:23;;;;;;;4.43;2.58;;;18.50;99.90;;;;;;5036563;28;20083;-74
2021/10/03 07:30:49;;;;;;;4.25;2.50;;;18.50;99.90;;;;;;5037788;28;20109;-74
2021/10/03 07:33:17;;;;;;;3.60;3.00;;;18.40;99.90;;;;;;5038630;28;20045;-73
2021/10/03 07:35:42;;;;;;;3.17;2.38;;;18.50;99.90;;;;;;5039408;28;20017;-73
2021/10/03 07:38:08;;;;;;;3.13;2.83;;;18.50;99.90;;;;;;5040144;28;20085;-73
2021/10/03 07:40:34;;;;;;;5.10;2.10;;;18.60;99.90;;;;;;5039828;28;20481;-74
2021/10/03 07:42:59;;;;;;;4.95;2.25;;;18.50;99.90;;;;;;5039145;28;20037;-74
2021/10/03 07:45:25;;;;;;;3.75;3.38;;;18.80;99.90;;;;;;5039743;28;20116;-74
2021/10/03 07:47:50;;;;;;;3.10;2.78;;;18.70;99.90;;;;;;5038438;28;20033;-73
2021/10/03 07:50:16;;;;;;;3.58;2.97;;;18.70;99.90;;;;;;5037143;28;20091;-75
2021/10/03 07:52:42;;;;;;;3.00;2.53;;;18.90;99.90;;;;;;5037046;28;20041;-73
2021/10/03 07:55:07;;;;;;;3.38;2.47;;;18.90;99.90;;;;;;5037142;28;20559;-73
2021/10/03 07:57:34;;;;;;;3.33;2.60;;;18.80;99.90;;;;;;5040584;28;20032;-74
2021/10/03 08:00:00;;;;;;;4.80;3.08;;;18.90;99.90;;;;;;5040854;28;20480;-73
2021/10/03 08:02:26;;;;;;;4.78;2.75;;;19.00;99.90;;;;;;5038874;28;20057;-75
2021/10/03 08:04:52;;;;;;;6.07;4.40;;;19.00;99.90;;;;;;5039820;28;20033;-73
2021/10/03 08:07:17;;;;;;;4.93;3.20;;;19.00;99.90;;;;;;5041199;28;20030;-74
2021/10/03 08:09:43;;;;;;;4.55;3.00;;;19.20;99.90;;;;;;5041891;28;20095;-74
2021/10/03 08:12:09;;;;;;;6.07;2.95;;;19.30;99.90;;;;;;5041297;28;20021;-74
2021/10/03 08:14:34;;;;;;;2.95;2.40;;;19.10;99.90;;;;;;5041569;28;20477;-73
2021/10/03 08:17:00;;;;;;;7.22;3.47;;;19.00;99.90;;;;;;5039665;28;20035;-75
2021/10/03 08:19:25;;;;;;;2.83;2.35;;;19.00;99.90;;;;;;5036349;28;20032;-73
2021/10/03 08:21:51;;;;;;;6.32;2.92;;;19.10;99.90;;;;;;5035558;28;20025;-74
2021/10/03 08:24:17;;;;;;;3.63;2.50;;;19.20;99.90;;;;;;5037086;28;20389;-75
2021/10/03 08:26:43;;;;;;;2.70;2.33;;;19.20;99.90;;;;;;5035105;28;20393;-74
2021/10/03 08:29:08;;;;;;;5.68;2.60;;;19.30;99.90;;;;;;5036593;28;20100;-75
2021/10/03 08:31:34;;;;;;;3.33;3.05;;;19.30;99.90;;;;;;5035432;28;20056;-76
2021/10/03 08:33:59;;;;;;;5.68;2.42;;;19.30;99.90;;;;;;5036112;28;20037;-75
2021/10/03 08:36:25;;;;;;;2.78;2.55;;;19.20;99.90;;;;;;5036766;28;20535;-74
2021/10/03 08:38:53;;;;;;;2.58;2.38;;;19.20;99.90;;;;;;5038747;28;20026;-74
2021/10/03 08:41:19;;;;;;;2.35;2.15;;;19.30;99.90;;;;;;5036845;28;20026;-75
2021/10/03 08:43:45;;;;;;;2.85;2.35;;;19.50;99.90;;;;;;5037193;28;20021;-74
2021/10/03 08:46:11;;;;;;;4.70;2.80;;;19.40;99.90;;;;;;5037672;28;20028;-76
2021/10/03 08:48:37;;;;;;;3.40;2.20;;;19.30;99.90;;;;;;5036559;28;20393;-74
2021/10/03 08:51:02;;;;;;;2.47;2.20;;;19.30;99.90;;;;;;5044837;28;20026;-73
2021/10/03 08:53:28;;;;;;;2.65;2.42;;;19.30;99.90;;;;;;5053643;28;20067;-74
2021/10/03 08:55:56;;;;;;;3.65;2.92;;;19.40;99.90;;;;;;5047005;28;20033;-75
2021/10/03 08:58:23;;;;;;;5.07;2.50;;;19.50;99.90;;;;;;5041869;28;20021;-75
2021/10/03 09:00:50;;;;;;;4.90;3.13;;;19.50;99.90;;;;;;5042118;28;20029;-74
2021/10/03 09:03:17;;;;;;;4.95;2.90;;;19.60;99.90;;;;;;5041083;28;20493;-75
2021/10/03 09:05:45;;;;;;;2.58;2.30;;;19.60;99.90;;;;;;5039362;28;20370;-75
2021/10/03 09:08:15;;;;;;;3.85;2.90;;;19.60;99.90;;;;;;5035059;28;20040;-74
2021/10/03 09:11:01;;;;;;;4.45;3.22;;;19.80;99.90;;;;;;5033357;28;20465;-75
2021/10/03 09:13:32;;;;;;;4.43;3.70;;;19.80;99.90;;;;;;5035144;28;20025;-75
2021/10/03 09:18:43;;;;;;;3.58;3.20;;;19.60;99.90;;;;;;5052738;23;20053;-74
2021/10/03 09:21:11;;;;;;;10.10;6.88;;;19.60;99.90;;;;;;5034252;28;20028;-73
2021/10/03 09:23:37;;;;;;;3.08;2.45;;;19.70;99.90;;;;;;5034383;28;20029;-73
2021/10/03 09:26:02;;;;;;;5.07;2.83;;;19.70;99.90;;;;;;5032706;28;20028;-74
2021/10/03 09:28:31;;;;;;;4.50;2.22;;;19.80;99.90;;;;;;5033931;28;20036;-74
2021/10/03 09:31:00;;;;;;;3.67;3.15;;;19.80;99.90;;;;;;5033675;28;20053;-74
2021/10/03 09:33:39;;;;;;;5.28;2.90;;;19.90;99.90;;;;;;5034032;28;20587;-75
2021/10/03 09:36:05;;;;;;;7.90;2.70;;;19.70;99.90;;;;;;5033828;28;20069;-73
2021/10/03 09:38:43;;;;;;;3.10;2.80;;;19.60;99.90;;;;;;5033695;28;20053;-74
2021/10/03 09:41:10;;;;;;;3.35;2.17;;;19.50;99.90;;;;;;5033800;28;20151;-74
2021/10/03 09:43:48;;;;;;;2.75;2.38;;;19.60;99.90;;;;;;5032588;28;20283;-74
2021/10/03 09:46:29;;;;;;;4.15;3.35;;;19.60;99.90;;;;;;5033529;28;20025;-74
2021/10/03 09:48:55;;;;;;;3.33;2.50;;;19.80;99.90;;;;;;5033862;28;20034;-73
2021/10/03 09:51:21;;;;;;;3.65;2.10;;;20.10;99.90;;;;;;5033569;28;20481;-75
2021/10/03 09:53:47;;;;;;;4.20;2.17;;;20.00;99.90;;;;;;5033937;28;20347;-73
2021/10/03 09:56:13;;;;;;;3.65;2.47;;;20.00;99.90;;;;;;5035529;28;20025;-74
2021/10/03 09:58:40;;;;;;;5.28;2.60;;;20.00;99.90;;;;;;5041280;28;20121;-74
2021/10/03 10:01:07;;;;;;;3.95;2.72;;;20.00;99.90;;;;;;5036958;28;20033;-74
2021/10/03 10:03:35;;;;;;;3.33;3.03;;;20.00;99.90;;;;;;5034855;28;20025;-74
2021/10/03 10:06:01;;;;;;;5.18;2.80;;;20.00;99.90;;;;;;5036692;28;20022;-74
2021/10/03 10:08:26;;;;;;;5.68;2.88;;;19.90;99.90;;;;;;5035124;28;20032;-76
2021/10/03 10:10:54;;;;;;;5.53;2.58;;;19.90;99.90;;;;;;5034397;28;20037;-72
2021/10/03 10:13:22;;;;;;;3.53;2.30;;;19.80;99.90;;;;;;5034808;28;20075;-74
2021/10/03 10:15:48;;;;;;;3.17;2.33;;;19.90;99.90;;;;;;5032639;28;20087;-74
2021/10/03 10:18:25;;;;;;;7.47;3.17;;;20.00;99.90;;;;;;5033760;28;20477;-74
2021/10/03 10:20:56;;;;;;;5.85;3.40;;;20.00;99.90;;;;;;5033707;28;20079;-74
2021/10/03 10:23:30;;;;;;;4.00;2.83;;;20.10;99.90;;;;;;5038849;28;20037;-74
2021/10/03 10:25:57;;;;;;;3.10;2.80;;;20.30;99.90;;;;;;5047887;28;20056;-74
2021/10/03 10:28:29;;;;;;;3.42;2.53;;;20.50;99.90;;;;;;5045950;28;20071;-74
2021/10/03 10:31:09;;;;;;;4.63;2.60;;;20.70;99.90;;;;;;5044696;28;20033;-72
2021/10/03 10:33:50;;;;;;;4.25;2.95;;;20.90;99.90;;;;;;5037934;28;20104;-74
2021/10/03 10:36:20;;;;;;;2.67;2.33;;;21.20;99.90;;;;;;5037093;28;20383;-74
2021/10/03 10:39:20;;;;;;;3.25;2.80;;;21.70;99.90;;;;;;5037440;28;20022;-74
2021/10/03 10:41:58;;;;;;;4.88;2.78;;;21.60;99.90;;;;;;5001154;28;20040;-74
2021/10/03 10:44:24;;;;;;;4.10;2.88;;;21.60;99.90;;;;;;5032622;28;20028;-74
2021/10/03 10:46:53;;;;;;;8.93;2.63;;;21.60;99.90;;;;;;5033734;28;20017;-74
2021/10/03 10:49:41;;;;;;;4.20;2.83;;;21.70;99.90;;;;;;5033904;28;20036;-74
2021/10/03 10:52:19;;;;;;;4.97;2.80;;;21.70;99.90;;;;;;5037902;28;20061;-75
2021/10/03 10:55:06;;;;;;;3.10;2.42;;;21.60;99.90;;;;;;5041139;28;20024;-74
2021/10/03 10:57:53;;;;;;;3.28;2.40;;;21.60;99.90;;;;;;5042996;28;20033;-73
2021/10/03 11:00:24;;;;;;;2.40;2.05;;;21.50;99.90;;;;;;5052904;28;20112;-75
2021/10/03 11:02:54;;;;;;;2.22;1.90;;;21.70;99.90;;;;;;5048260;28;20040;-74
2021/10/03 11:05:34;;;;;;;3.63;2.50;;;21.80;99.90;;;;;;5043078;28;20120;-74
2021/10/03 11:08:07;;;;;;;3.10;2.17;;;22.00;99.90;;;;;;5043814;28;20021;-74
2021/10/03 11:10:58;;;;;;;3.75;2.10;;;22.00;99.90;;;;;;5044704;28;20033;-73
2021/10/03 11:13:49;;;;;;;3.17;2.00;;;21.70;99.90;;;;;;5041228;28;20029;-73
2021/10/03 11:16:31;;;;;;;6.25;2.42;;;21.70;99.90;;;;;;5035125;28;20036;-73
2021/10/03 11:19:01;;;;;;;3.17;2.20;;;21.70;99.90;;;;;;5031994;28;20485;-75
2021/10/03 11:21:28;;;;;;;3.50;2.13;;;21.50;99.90;;;;;;5032659;28;20206;-74
2021/10/03 11:23:56;;;;;;;3.70;1.95;;;21.40;99.90;;;;;;5032816;28;20029;-75
2021/10/03 11:26:23;;;;;;;2.70;2.15;;;21.70;99.90;;;;;;5032869;28;20109;-74
2021/10/03 11:28:56;;;;;;;3.08;2.47;;;21.50;99.90;;;;;;5033621;28;20029;-75
2021/10/03 11:31:34;;;;;;;2.95;2.47;;;21.10;99.90;;;;;;5033330;28;20033;-75
2021/10/03 11:34:00;;;;;;;5.07;2.47;;;21.20;99.90;;;;;;5033208;28;20018;-75
2021/10/03 11:36:26;;;;;;;4.90;2.70;;;21.20;99.90;;;;;;5033259;28;20098;-75
2021/10/03 11:38:52;;;;;;;4.65;2.90;;;21.10;99.90;;;;;;5033400;28;20036;-74
2021/10/03 11:41:18;;;;;;;6.57;2.70;;;21.20;99.90;;;;;;5033434;28;20033;-76
2021/10/03 11:43:43;;;;;;;3.13;2.55;;;21.20;99.90;;;;;;5035094;28;20049;-74
2021/10/03 11:46:09;;;;;;;3.40;2.40;;;21.10;99.90;;;;;;5033509;28;20439;-74
2021/10/03 11:48:34;;;;;;;3.47;2.67;;;21.10;99.90;;;;;;5032971;28;20037;-76
2021/10/03 11:51:00;;;;;;;5.15;3.10;;;21.10;99.90;;;;;;5033013;28;20030;-75
2021/10/03 11:53:31;;;;;;;7.10;2.75;;;21.10;99.90;;;;;;5033423;28;20017;-74
2021/10/03 11:56:08;;;;;;;3.42;2.58;;;21.10;99.90;;;;;;5032117;28;20022;-75
2021/10/03 11:58:40;;;;;;;4.80;2.53;;;21.10;99.90;;;;;;5032836;28;20029;-74
2021/10/03 12:01:06;;;;;;;5.25;3.10;;;21.20;99.90;;;;;;5033260;28;20029;-74
2021/10/03 12:03:33;;;;;;;4.00;2.92;;;21.40;99.90;;;;;;5036157;28;20022;-74
2021/10/03 12:06:14;;;;;;;3.33;2.90;;;21.40;99.90;;;;;;5035785;28;20028;-75
2021/10/03 12:08:40;;;;;;;4.45;2.60;;;21.40;99.90;;;;;;5051536;28;20032;-74
2021/10/03 12:11:06;;;;;;;4.18;2.13;;;21.50;99.90;;;;;;5057337;28;20033;-75
2021/10/03 12:13:33;;;;;;;4.07;2.35;;;21.50;99.90;;;;;;5056737;28;20021;-74
2021/10/03 12:16:02;;;;;;;3.92;2.35;;;21.60;99.90;;;;;;5042185;28;20021;-75
2021/10/03 12:18:30;;;;;;;5.80;2.55;;;21.70;99.90;;;;;;5036845;28;20523;-74
2021/10/03 12:20:57;;;;;;;4.90;2.63;;;21.70;99.90;;;;;;5036379;28;20029;-73
2021/10/03 12:23:42;;;;;;;5.57;2.67;;;21.60;99.90;;;;;;5036184;28;20021;-74
2021/10/03 12:26:25;;;;;;;4.50;2.53;;;21.60;99.90;;;;;;5036174;28;20396;-74
2021/10/03 12:29:06;;;;;;;5.63;3.13;;;21.60;99.90;;;;;;5036384;28;20036;-75
2021/10/03 12:31:39;;;;;;;;;;;21.60;99.90;;;;;;5035155;28;20056;-75
2021/10/03 12:34:07;;;;;;;3.83;3.30;;;21.70;99.90;;;;;;5036124;28;19909;-76
2021/10/03 12:36:34;;;;;;;2.95;2.65;;;21.70;99.90;;;;;;5036352;28;20113;-75
2021/10/03 12:38:59;;;;;;;4.13;2.67;;;21.80;99.90;;;;;;5037647;28;20028;-75
2021/10/03 12:41:25;;;;;;;3.58;3.28;;;21.90;99.90;;;;;;5035696;28;20457;-75
2021/10/03 12:43:55;;;;;;;4.30;3.90;;;21.90;99.90;;;;;;5035690;28;20025;-75
2021/10/03 12:46:21;;;;;;;3.85;3.45;;;21.80;99.90;;;;;;5035286;28;20075;-74
2021/10/03 12:48:47;;;;;;;4.65;3.58;;;21.80;99.90;;;;;;5035884;28;20512;-76
2021/10/03 12:51:12;;;;;;;4.45;4.05;;;21.90;99.90;;;;;;5035682;28;20037;-75